Boulder, CO (80301)

4:18 PM MDT on August 31, 2015 (GMT -0600)
63rd St and Jay Rd | | Change Station
CLOSE
Current Station
Personal Weather Station
Location: Boulder, CO
Elevation: 5202 ft
Nearby Weather Stations

Elev 5202 ft 40.06 °N, 105.21 °W | Updated 6 seconds ago

Overcast
Overcast
71.8 °F
Feels Like 77 °F
N
2.9
Wind Variable Wind from SW
Gusts 8.0 mph

Today
High -- | Low -- °F
--% Chance of Precip.
Yesterday
High -- | Low -- °F
Precip. -- in
6:27 AM 7:34 PM
Waning Gibbous, 93% visible
Pressure 30.15 in
Visibility 10.0 miles
Clouds Scattered Clouds 6000 ft
Scattered Clouds 8000 ft
Overcast 9000 ft
Heat Index 77 °F
Dew Point 52 °F
Humidity 50%
Rainfall 0.00 in
Snow Depth Not available.
UV 1 out of 12
Pollen 10.10 out of 12
Air Quality Not available.
Flu Activity Not available.
METAR KBDU 312219Z AUTO 22005KT 10SM DZ SCT060 SCT080 OVC090 22/11 A3015 RMK AO2 LTG DSNT SE
Pressure 30.15 in
Visibility 10.0 miles
Clouds Scattered Clouds 6000 ft
Scattered Clouds 8000 ft
Overcast 9000 ft
Heat Index 77 °F
Dew Point 52 °F
Humidity 50%
Rainfall 0.00 in
Snow Depth Not available.
UV 1 out of 12
Pollen 10.10 out of 12
Air Quality Not available.
Flu Activity Not available.
METAR KBDU 312219Z AUTO 22005KT 10SM DZ SCT060 SCT080 OVC090 22/11 A3015 RMK AO2 LTG DSNT SE
Nowcast | as of 3:08 PM MDT on August 31, 2015

Scattered showers and a few thunderstorms will continue to move across the Front Range foothills through late afternoon...and slowly spread over the urban corridor as well after 330 PM. Expect heavy rain and gusty winds to 40 mph with the stronger storms. Rainfall rates will be up to a third of an inch in 30 minutes with the stronger storms.

×

10-Day Weather Forecast

×

Almanac

Astronomy

Aug. 31, 2015 Rise Set
Actual Time
Civil Twilight
Nautical Twilight
Astronomical Twilight
Moon
Length of Visible Light
Length of Day
Tomorrow will be .
, % of the Moon is Illuminated

Today's Extremes

State Highs State Lows

Community

WunderPhotos

Upload Photos

1,851,389 photos uploaded!

WunderBlogs® & News

Nearby

Air Quality

  Air Quality AQ Index Pollutant
Not available.

Snow Depth

Station Depth Elevation

Earthquake Activity

City Distance Mag. Time & Date
Minimum magnitude displayed is 2.5.

Coastal Water Temperatures

Place Temperature

Stations

Nearby Weather Stations

Station Location Temp. Windchill Dew Point Humidity Wind Precip. Elev Updated Type